createdAt,value
2022-12-15T05:08:55.757Z,99516.44
2022-12-15T05:12:16.475Z,99523.16
2022-12-15T05:15:36.962Z,99540.47
2022-12-15T05:18:57.859Z,99533.41
2022-12-15T05:22:18.732Z,99549.19
2022-12-15T05:25:39.929Z,99544.03
2022-12-15T05:29:00.637Z,99548.12
2022-12-15T05:32:03.121Z,99537.00
2022-12-15T05:35:05.724Z,99549.47
2022-12-15T05:38:08.097Z,99563.53
2022-12-15T05:41:10.207Z,99564.81
2022-12-15T05:44:12.897Z,99565.50
2022-12-15T05:47:14.935Z,99574.09
2022-12-15T05:50:17.274Z,99570.84
2022-12-15T05:53:19.309Z,99566.34
2022-12-15T05:56:21.806Z,99583.38
2022-12-15T05:59:23.945Z,99590.78
2022-12-15T06:02:28.770Z,99601.16
2022-12-15T06:05:31.113Z,99618.44
2022-12-15T06:08:35.199Z,99614.72
2022-12-15T06:11:37.742Z,99609.75
2022-12-15T06:14:39.862Z,99622.72
2022-12-15T06:17:42.186Z,99635.53
2022-12-15T06:20:44.232Z,99634.78
2022-12-15T06:23:47.996Z,99635.22
2022-12-15T06:26:50.291Z,99647.81
2022-12-15T06:29:53.019Z,99638.66
2022-12-15T06:32:55.061Z,99648.19
2022-12-15T06:35:57.841Z,99661.94
2022-12-15T06:39:05.108Z,99652.53
2022-12-15T06:42:07.429Z,99648.97
2022-12-15T06:45:10.012Z,99648.50
2022-12-15T06:48:12.354Z,99652.25
2022-12-15T06:51:17.405Z,99658.31
2022-12-15T06:54:20.003Z,99668.03
2022-12-15T06:57:22.036Z,99669.19
2022-12-15T07:00:24.360Z,99675.75
2022-12-15T07:03:26.607Z,99683.75
2022-12-15T07:06:36.054Z,99681.69
2022-12-15T07:09:38.191Z,99680.22
2022-12-15T07:12:40.594Z,99702.22
2022-12-15T07:15:44.246Z,99718.56
2022-12-15T07:18:47.162Z,99726.03
2022-12-15T07:21:49.211Z,99731.16
2022-12-15T07:24:51.497Z,99722.62
2022-12-15T07:27:56.152Z,99726.97
2022-12-15T07:31:06.241Z,99730.31
2022-12-15T07:34:08.311Z,99726.31
2022-12-15T07:37:10.767Z,99727.34
2022-12-15T07:40:12.876Z,99729.66
2022-12-15T07:43:15.869Z,99744.91
2022-12-15T07:46:18.299Z,99754.06
2022-12-15T07:49:21.277Z,99751.69
2022-12-15T07:52:23.871Z,99744.44
2022-12-15T07:55:57.229Z,99747.06
2022-12-15T07:58:51.695Z,99761.88
2022-12-15T08:01:54.136Z,99760.38
2022-12-15T08:04:56.643Z,99756.22
2022-12-15T08:08:15.581Z,99757.94
2022-12-15T08:11:26.091Z,99762.41
2022-12-15T08:14:32.837Z,99766.13
2022-12-15T08:17:46.926Z,99768.94
2022-12-15T08:20:50.341Z,99774.00
2022-12-15T08:24:26.471Z,99783.16
2022-12-15T08:27:29.166Z,99792.63
2022-12-15T08:30:33.156Z,99787.75
2022-12-15T08:33:36.873Z,99801.69
2022-12-15T08:36:39.575Z,99793.88
2022-12-15T08:39:42.508Z,99801.53
2022-12-15T08:42:45.476Z,99806.38
2022-12-15T08:45:51.316Z,99804.97
2022-12-15T08:49:04.927Z,99797.28
2022-12-15T08:52:12.841Z,99803.31
2022-12-15T08:55:22.462Z,99807.78
2022-12-15T08:58:26.401Z,99828.91
2022-12-15T09:01:33.648Z,99829.50
2022-12-15T09:04:36.565Z,99833.50
2022-12-15T09:07:45.257Z,99840.06
2022-12-15T09:10:52.379Z,99832.91
2022-12-15T09:13:57.828Z,99811.37
2022-12-15T09:17:01.767Z,99811.44
2022-12-15T09:20:17.987Z,99810.09
2022-12-15T09:23:27.581Z,99814.12
2022-12-15T09:26:45.953Z,99823.97
2022-12-15T09:30:03.313Z,99817.25
2022-12-15T09:33:06.298Z,99819.66
2022-12-15T09:36:10.282Z,99814.62
2022-12-15T09:39:12.797Z,99803.37
2022-12-15T09:42:25.345Z,99804.06
2022-12-15T09:45:43.446Z,99799.56
2022-12-15T09:48:46.789Z,99811.84
2022-12-15T09:52:17.001Z,99819.09
2022-12-15T09:55:30.646Z,99811.31
2022-12-15T09:58:51.801Z,99820.09
2022-12-15T10:02:40.379Z,99814.31
2022-12-15T10:06:18.308Z,99827.75
2022-12-15T10:09:27.456Z,99835.38
2022-12-15T10:12:37.051Z,99834.00
2022-12-15T10:15:50.439Z,99838.78
2022-12-15T10:19:08.910Z,99832.41
2022-12-15T10:22:14.375Z,99824.53
2022-12-15T10:28:59.230Z,99829.06
2022-12-15T10:32:10.561Z,99831.03
2022-12-15T10:35:21.638Z,99827.41
2022-12-15T10:38:38.603Z,99818.22
2022-12-15T10:41:41.253Z,99825.72
2022-12-15T10:44:50.418Z,99810.66
2022-12-15T10:48:06.870Z,99809.06
2022-12-15T10:51:32.997Z,99813.22
2022-12-15T10:54:43.399Z,99801.41
2022-12-15T10:58:01.428Z,99807.59
2022-12-15T11:01:14.910Z,99804.72
2022-12-15T11:04:27.680Z,99803.44
2022-12-15T11:07:35.070Z,99809.13
2022-12-15T11:11:11.735Z,99811.97
2022-12-15T11:14:17.741Z,99824.75
2022-12-15T11:17:22.884Z,99826.44
2022-12-15T11:20:33.372Z,99819.19
2022-12-15T11:23:48.869Z,99814.53
2022-12-15T11:26:58.622Z,99816.84
2022-12-15T11:30:22.132Z,99809.59
2022-12-15T11:33:24.301Z,99804.91
2022-12-15T11:37:02.156Z,99812.16
2022-12-15T11:40:35.769Z,99813.28
2022-12-15T11:44:00.974Z,99808.00
2022-12-15T11:47:14.840Z,99810.97
2022-12-15T11:50:27.365Z,99820.59
2022-12-15T11:54:14.737Z,99831.06
2022-12-15T11:57:44.402Z,99835.47
2022-12-15T12:01:26.457Z,99837.66
2022-12-15T12:04:36.179Z,99831.88
2022-12-15T12:07:47.920Z,99837.94
2022-12-15T12:11:03.755Z,99838.50
2022-12-15T12:15:18.263Z,99829.59
2022-12-15T12:18:23.040Z,99823.56
2022-12-15T12:21:31.745Z,99843.16
2022-12-15T12:24:41.359Z,99831.06
2022-12-15T12:28:24.742Z,99826.31
2022-12-15T12:31:42.376Z,99813.53
2022-12-15T12:35:29.778Z,99812.47
2022-12-15T12:38:29.874Z,99803.44
2022-12-15T12:41:47.061Z,99806.66
2022-12-15T12:44:49.803Z,99815.66
2022-12-15T12:47:56.109Z,99815.44
2022-12-15T12:51:17.753Z,99815.34
2022-12-15T12:54:37.812Z,99816.22
2022-12-15T12:57:41.865Z,99804.84
2022-12-15T13:01:15.144Z,99817.13
2022-12-15T13:04:30.922Z,99826.78
2022-12-15T13:07:40.961Z,99828.47
2022-12-15T13:10:47.906Z,99838.28
2022-12-15T13:13:53.440Z,99851.00
2022-12-15T13:17:27.706Z,99851.84
2022-12-15T13:20:33.050Z,99846.66
2022-12-15T13:23:40.297Z,99850.75
2022-12-15T13:26:52.433Z,99852.09
2022-12-15T13:30:01.087Z,99849.53
2022-12-15T13:33:19.543Z,99839.03
2022-12-15T13:36:37.854Z,99845.78
2022-12-15T13:39:58.384Z,99852.69
2022-12-15T13:43:04.048Z,99854.78
2022-12-15T13:46:20.490Z,99867.44
2022-12-15T13:49:31.304Z,99857.72
2022-12-15T13:53:08.504Z,99856.50
2022-12-15T13:56:06.612Z,99856.09
2022-12-15T13:59:33.396Z,99852.19
2022-12-15T14:02:36.996Z,99862.78
2022-12-15T14:05:42.835Z,99862.34
2022-12-15T14:08:44.956Z,99850.03
2022-12-15T14:11:54.390Z,99852.56
2022-12-15T14:14:56.663Z,99845.97
2022-12-15T14:18:01.666Z,99846.00
2022-12-15T14:21:20.031Z,99848.56
2022-12-15T14:24:45.009Z,99855.63
2022-12-15T14:27:50.755Z,99852.78
2022-12-15T14:30:53.548Z,99843.75
2022-12-15T14:34:18.535Z,99834.84
2022-12-15T14:37:21.181Z,99830.19
2022-12-15T14:40:28.893Z,99834.94
2022-12-15T14:43:38.680Z,99851.03
2022-12-15T14:46:45.278Z,99852.00
2022-12-15T14:49:48.684Z,99848.87
2022-12-15T14:53:11.476Z,99846.78
2022-12-15T14:56:25.715Z,99847.34
2022-12-15T14:59:34.935Z,99851.94
2022-12-15T15:02:37.399Z,99872.41
2022-12-15T15:03:04.400Z,99823.00
2022-12-15T15:05:41.141Z,99882.41
2022-12-15T15:08:48.176Z,99860.62
2022-12-15T15:11:54.720Z,99886.47
2022-12-15T15:15:05.012Z,99880.09
2022-12-15T15:18:07.044Z,99876.44
2022-12-15T15:21:17.155Z,99885.78
2022-12-15T15:24:23.748Z,99887.41
2022-12-15T15:27:30.605Z,99864.91
2022-12-15T15:30:42.057Z,99862.72
2022-12-15T15:33:44.484Z,99860.97
2022-12-15T15:36:47.288Z,99859.69
2022-12-15T15:39:54.910Z,99863.44
2022-12-15T15:42:56.988Z,99853.50
2022-12-15T15:46:08.657Z,99846.19
2022-12-15T15:49:16.936Z,99852.56
2022-12-15T15:52:19.257Z,99852.94
2022-12-15T15:55:27.471Z,99856.37
2022-12-15T15:58:30.215Z,99842.72
2022-12-15T16:01:32.713Z,99834.88
2022-12-15T16:04:37.161Z,99841.09
2022-12-15T16:07:39.836Z,99843.25
2022-12-15T16:10:45.501Z,99848.50
2022-12-15T16:13:47.585Z,99855.31
2022-12-15T16:16:49.960Z,99849.25
2022-12-15T16:23:22.819Z,99845.91
2022-12-15T16:26:29.915Z,99846.41
2022-12-15T16:29:31.962Z,99843.00
2022-12-15T16:32:34.248Z,99833.00
2022-12-15T16:35:36.926Z,99847.78
2022-12-15T16:38:39.984Z,99850.28
2022-12-15T16:41:42.096Z,99849.72
2022-12-15T16:44:44.496Z,99855.03
2022-12-15T16:47:46.555Z,99859.88
